sensor_id;sensor_type;location;lat;lon;timestamp;temperature;humidity
75738;DHT22;64356;45.638;13.764;2023-07-20T00:01:18;29.00;60.30
75738;DHT22;64356;45.638;13.764;2023-07-20T00:03:43;29.00;60.40
75738;DHT22;64356;45.638;13.764;2023-07-20T00:06:09;29.00;60.30
75738;DHT22;64356;45.638;13.764;2023-07-20T00:08:35;28.90;60.20
75738;DHT22;64356;45.638;13.764;2023-07-20T00:11:00;29.00;60.10
75738;DHT22;64356;45.638;13.764;2023-07-20T00:13:26;28.90;60.10
75738;DHT22;64356;45.638;13.764;2023-07-20T00:15:52;28.90;60.10
75738;DHT22;64356;45.638;13.764;2023-07-20T00:18:18;28.90;59.70
75738;DHT22;64356;45.638;13.764;2023-07-20T00:20:47;28.90;59.90
75738;DHT22;64356;45.638;13.764;2023-07-20T00:23:12;28.90;59.80
75738;DHT22;64356;45.638;13.764;2023-07-20T00:25:38;28.90;59.80
75738;DHT22;64356;45.638;13.764;2023-07-20T00:28:04;28.90;59.60
75738;DHT22;64356;45.638;13.764;2023-07-20T00:30:29;28.90;59.70
75738;DHT22;64356;45.638;13.764;2023-07-20T00:32:55;28.90;59.50
75738;DHT22;64356;45.638;13.764;2023-07-20T00:35:21;28.90;59.70
75738;DHT22;64356;45.638;13.764;2023-07-20T00:37:46;28.90;59.80
75738;DHT22;64356;45.638;13.764;2023-07-20T00:40:12;28.90;59.90
75738;DHT22;64356;45.638;13.764;2023-07-20T00:42:38;28.80;59.90
75738;DHT22;64356;45.638;13.764;2023-07-20T00:45:05;28.80;59.60
75738;DHT22;64356;45.638;13.764;2023-07-20T00:47:31;28.90;60.00
75738;DHT22;64356;45.638;13.764;2023-07-20T00:49:57;28.80;60.10
75738;DHT22;64356;45.638;13.764;2023-07-20T00:52:25;28.80;60.00
75738;DHT22;64356;45.638;13.764;2023-07-20T00:54:51;28.80;59.90
75738;DHT22;64356;45.638;13.764;2023-07-20T00:57:19;28.80;60.30
75738;DHT22;64356;45.638;13.764;2023-07-20T00:59:45;28.80;59.70
75738;DHT22;64356;45.638;13.764;2023-07-20T01:02:10;28.80;59.50
75738;DHT22;64356;45.638;13.764;2023-07-20T01:04:36;28.80;59.20
75738;DHT22;64356;45.638;13.764;2023-07-20T01:09:42;28.90;59.60
75738;DHT22;64356;45.638;13.764;2023-07-20T01:12:13;28.80;59.70
75738;DHT22;64356;45.638;13.764;2023-07-20T01:14:43;28.80;59.60
75738;DHT22;64356;45.638;13.764;2023-07-20T01:17:10;28.90;59.60
75738;DHT22;64356;45.638;13.764;2023-07-20T01:19:35;28.90;59.50
75738;DHT22;64356;45.638;13.764;2023-07-20T01:22:35;28.80;59.70
75738;DHT22;64356;45.638;13.764;2023-07-20T01:30:51;28.90;59.70
75738;DHT22;64356;45.638;13.764;2023-07-20T01:33:15;28.90;59.60
75738;DHT22;64356;45.638;13.764;2023-07-20T01:35:43;29.00;59.20
75738;DHT22;64356;45.638;13.764;2023-07-20T01:38:11;29.00;59.00
75738;DHT22;64356;45.638;13.764;2023-07-20T01:40:39;29.10;58.70
75738;DHT22;64356;45.638;13.764;2023-07-20T01:43:05;29.10;58.00
75738;DHT22;64356;45.638;13.764;2023-07-20T01:45:31;29.10;57.80
75738;DHT22;64356;45.638;13.764;2023-07-20T01:47:56;29.20;57.80
75738;DHT22;64356;45.638;13.764;2023-07-20T01:50:22;29.20;57.50
75738;DHT22;64356;45.638;13.764;2023-07-20T01:52:48;29.20;57.60
75738;DHT22;64356;45.638;13.764;2023-07-20T01:55:14;29.10;57.80
75738;DHT22;64356;45.638;13.764;2023-07-20T01:57:39;29.10;57.80
75738;DHT22;64356;45.638;13.764;2023-07-20T02:00:05;29.10;57.70
75738;DHT22;64356;45.638;13.764;2023-07-20T02:02:32;29.10;57.80
75738;DHT22;64356;45.638;13.764;2023-07-20T02:04:58;29.10;58.10
75738;DHT22;64356;45.638;13.764;2023-07-20T02:07:23;29.10;58.40
75738;DHT22;64356;45.638;13.764;2023-07-20T02:09:49;29.00;58.50
75738;DHT22;64356;45.638;13.764;2023-07-20T02:12:15;29.00;58.30
75738;DHT22;64356;45.638;13.764;2023-07-20T02:14:41;29.00;57.70
75738;DHT22;64356;45.638;13.764;2023-07-20T02:17:07;29.00;57.60
75738;DHT22;64356;45.638;13.764;2023-07-20T02:19:36;29.00;58.00
75738;DHT22;64356;45.638;13.764;2023-07-20T02:22:02;28.90;57.90
75738;DHT22;64356;45.638;13.764;2023-07-20T02:24:28;28.90;57.40
75738;DHT22;64356;45.638;13.764;2023-07-20T02:26:53;29.00;57.00
75738;DHT22;64356;45.638;13.764;2023-07-20T02:29:19;29.00;56.50
75738;DHT22;64356;45.638;13.764;2023-07-20T02:31:45;29.00;56.30
75738;DHT22;64356;45.638;13.764;2023-07-20T02:34:10;29.10;56.00
75738;DHT22;64356;45.638;13.764;2023-07-20T02:36:36;29.10;55.90
75738;DHT22;64356;45.638;13.764;2023-07-20T02:39:02;29.10;55.50
75738;DHT22;64356;45.638;13.764;2023-07-20T02:41:30;29.10;55.20
75738;DHT22;64356;45.638;13.764;2023-07-20T02:43:56;29.10;55.20
75738;DHT22;64356;45.638;13.764;2023-07-20T02:46:22;29.10;54.90
75738;DHT22;64356;45.638;13.764;2023-07-20T02:48:47;29.20;55.00
75738;DHT22;64356;45.638;13.764;2023-07-20T02:51:13;29.10;55.00
75738;DHT22;64356;45.638;13.764;2023-07-20T02:53:39;29.10;54.80
75738;DHT22;64356;45.638;13.764;2023-07-20T02:56:05;29.10;54.50
75738;DHT22;64356;45.638;13.764;2023-07-20T02:58:30;29.10;54.40
75738;DHT22;64356;45.638;13.764;2023-07-20T03:00:56;29.10;54.40
75738;DHT22;64356;45.638;13.764;2023-07-20T03:03:22;29.10;54.50
75738;DHT22;64356;45.638;13.764;2023-07-20T03:05:47;29.10;54.50
75738;DHT22;64356;45.638;13.764;2023-07-20T03:08:19;29.20;54.40
75738;DHT22;64356;45.638;13.764;2023-07-20T03:10:45;29.20;54.30
75738;DHT22;64356;45.638;13.764;2023-07-20T03:13:11;29.20;54.10
75738;DHT22;64356;45.638;13.764;2023-07-20T03:15:38;29.20;54.00
75738;DHT22;64356;45.638;13.764;2023-07-20T03:18:04;29.20;54.20
75738;DHT22;64356;45.638;13.764;2023-07-20T03:20:30;29.20;54.30
75738;DHT22;64356;45.638;13.764;2023-07-20T03:22:56;29.20;54.30
75738;DHT22;64356;45.638;13.764;2023-07-20T03:25:22;29.20;55.00
75738;DHT22;64356;45.638;13.764;2023-07-20T03:27:48;29.20;55.30
75738;DHT22;64356;45.638;13.764;2023-07-20T03:30:14;29.10;55.50
75738;DHT22;64356;45.638;13.764;2023-07-20T03:32:39;29.20;55.70
75738;DHT22;64356;45.638;13.764;2023-07-20T03:35:06;29.20;55.20
75738;DHT22;64356;45.638;13.764;2023-07-20T03:37:31;29.20;55.00
75738;DHT22;64356;45.638;13.764;2023-07-20T03:39:57;29.20;54.90
75738;DHT22;64356;45.638;13.764;2023-07-20T03:42:23;29.20;54.70
75738;DHT22;64356;45.638;13.764;2023-07-20T03:44:49;29.20;54.40
75738;DHT22;64356;45.638;13.764;2023-07-20T03:47:16;29.20;54.30
75738;DHT22;64356;45.638;13.764;2023-07-20T03:49:41;29.20;54.20
75738;DHT22;64356;45.638;13.764;2023-07-20T03:52:07;29.20;54.80
75738;DHT22;64356;45.638;13.764;2023-07-20T03:54:33;29.20;55.30
75738;DHT22;64356;45.638;13.764;2023-07-20T03:56:58;29.10;55.40
75738;DHT22;64356;45.638;13.764;2023-07-20T03:59:25;29.10;55.60
75738;DHT22;64356;45.638;13.764;2023-07-20T04:01:51;29.00;55.60
75738;DHT22;64356;45.638;13.764;2023-07-20T04:04:17;29.10;55.80
75738;DHT22;64356;45.638;13.764;2023-07-20T04:06:43;29.10;56.00
75738;DHT22;64356;45.638;13.764;2023-07-20T04:09:10;29.10;55.90
75738;DHT22;64356;45.638;13.764;2023-07-20T04:11:36;29.10;55.70
75738;DHT22;64356;45.638;13.764;2023-07-20T04:14:02;29.10;55.60
75738;DHT22;64356;45.638;13.764;2023-07-20T04:16:27;29.20;55.40
75738;DHT22;64356;45.638;13.764;2023-07-20T04:18:55;29.20;54.80
75738;DHT22;64356;45.638;13.764;2023-07-20T04:21:21;29.20;54.80
75738;DHT22;64356;45.638;13.764;2023-07-20T04:23:47;29.20;54.90
75738;DHT22;64356;45.638;13.764;2023-07-20T04:26:13;29.20;54.90
75738;DHT22;64356;45.638;13.764;2023-07-20T04:28:40;29.20;55.00
75738;DHT22;64356;45.638;13.764;2023-07-20T04:31:12;29.20;55.20
75738;DHT22;64356;45.638;13.764;2023-07-20T04:33:38;29.20;55.20
75738;DHT22;64356;45.638;13.764;2023-07-20T04:36:04;29.20;55.40
75738;DHT22;64356;45.638;13.764;2023-07-20T04:38:30;29.20;55.50
75738;DHT22;64356;45.638;13.764;2023-07-20T04:40:55;29.20;55.70
75738;DHT22;64356;45.638;13.764;2023-07-20T04:43:21;29.20;55.70
75738;DHT22;64356;45.638;13.764;2023-07-20T04:45:47;29.10;55.70
75738;DHT22;64356;45.638;13.764;2023-07-20T04:48:14;29.10;56.00
75738;DHT22;64356;45.638;13.764;2023-07-20T04:50:41;29.20;55.90
75738;DHT22;64356;45.638;13.764;2023-07-20T04:53:09;29.20;55.90
75738;DHT22;64356;45.638;13.764;2023-07-20T04:55:36;29.10;55.80
75738;DHT22;64356;45.638;13.764;2023-07-20T04:58:03;29.10;55.80
75738;DHT22;64356;45.638;13.764;2023-07-20T05:00:33;29.10;55.90
75738;DHT22;64356;45.638;13.764;2023-07-20T05:02:59;29.00;55.70
75738;DHT22;64356;45.638;13.764;2023-07-20T05:05:25;28.90;55.90
75738;DHT22;64356;45.638;13.764;2023-07-20T05:07:50;28.90;55.90
75738;DHT22;64356;45.638;13.764;2023-07-20T05:10:17;28.90;56.00
75738;DHT22;64356;45.638;13.764;2023-07-20T05:12:43;28.90;55.80
75738;DHT22;64356;45.638;13.764;2023-07-20T05:15:09;28.90;56.10
75738;DHT22;64356;45.638;13.764;2023-07-20T05:17:35;29.00;56.20
75738;DHT22;64356;45.638;13.764;2023-07-20T05:20:00;29.00;56.10
75738;DHT22;64356;45.638;13.764;2023-07-20T05:22:26;29.00;56.20
75738;DHT22;64356;45.638;13.764;2023-07-20T05:24:52;29.00;56.20
75738;DHT22;64356;45.638;13.764;2023-07-20T05:27:18;29.00;56.10
75738;DHT22;64356;45.638;13.764;2023-07-20T05:29:45;28.90;56.60
75738;DHT22;64356;45.638;13.764;2023-07-20T05:32:10;29.00;55.00
75738;DHT22;64356;45.638;13.764;2023-07-20T05:34:36;28.90;53.40
75738;DHT22;64356;45.638;13.764;2023-07-20T05:37:02;28.80;53.30
75738;DHT22;64356;45.638;13.764;2023-07-20T05:39:27;28.70;53.30
75738;DHT22;64356;45.638;13.764;2023-07-20T05:41:53;28.60;53.40
75738;DHT22;64356;45.638;13.764;2023-07-20T05:44:19;28.60;53.50
75738;DHT22;64356;45.638;13.764;2023-07-20T05:46:44;28.60;53.10
75738;DHT22;64356;45.638;13.764;2023-07-20T05:49:10;28.50;53.50
75738;DHT22;64356;45.638;13.764;2023-07-20T05:51:36;28.50;56.20
75738;DHT22;64356;45.638;13.764;2023-07-20T05:54:02;28.50;56.70
75738;DHT22;64356;45.638;13.764;2023-07-20T05:56:27;28.40;56.80
75738;DHT22;64356;45.638;13.764;2023-07-20T05:58:53;28.40;56.60
75738;DHT22;64356;45.638;13.764;2023-07-20T06:01:19;28.40;57.00
75738;DHT22;64356;45.638;13.764;2023-07-20T06:03:44;28.40;56.60
75738;DHT22;64356;45.638;13.764;2023-07-20T06:06:10;28.40;54.60
75738;DHT22;64356;45.638;13.764;2023-07-20T06:08:37;28.40;54.40
75738;DHT22;64356;45.638;13.764;2023-07-20T06:11:03;28.40;56.20
75738;DHT22;64356;45.638;13.764;2023-07-20T06:13:29;28.30;55.80
75738;DHT22;64356;45.638;13.764;2023-07-20T06:15:55;28.40;56.50
75738;DHT22;64356;45.638;13.764;2023-07-20T06:18:23;28.40;56.00
75738;DHT22;64356;45.638;13.764;2023-07-20T06:20:52;28.40;56.50
75738;DHT22;64356;45.638;13.764;2023-07-20T06:23:19;28.40;56.00
75738;DHT22;64356;45.638;13.764;2023-07-20T06:25:45;28.50;56.50
75738;DHT22;64356;45.638;13.764;2023-07-20T06:28:11;28.50;57.50
75738;DHT22;64356;45.638;13.764;2023-07-20T06:30:37;28.50;56.90
75738;DHT22;64356;45.638;13.764;2023-07-20T06:33:03;28.50;56.30
75738;DHT22;64356;45.638;13.764;2023-07-20T06:35:28;28.50;55.40
75738;DHT22;64356;45.638;13.764;2023-07-20T06:37:54;28.50;53.80
75738;DHT22;64356;45.638;13.764;2023-07-20T06:40:20;28.50;53.00
75738;DHT22;64356;45.638;13.764;2023-07-20T06:42:46;28.50;53.40
75738;DHT22;64356;45.638;13.764;2023-07-20T06:45:12;28.50;53.30
75738;DHT22;64356;45.638;13.764;2023-07-20T06:47:39;28.50;54.80
75738;DHT22;64356;45.638;13.764;2023-07-20T06:50:08;28.50;56.00
75738;DHT22;64356;45.638;13.764;2023-07-20T06:52:34;28.50;55.70
75738;DHT22;64356;45.638;13.764;2023-07-20T06:55:00;28.60;54.60
75738;DHT22;64356;45.638;13.764;2023-07-20T06:57:26;28.50;53.80
75738;DHT22;64356;45.638;13.764;2023-07-20T06:59:52;28.60;54.20
75738;DHT22;64356;45.638;13.764;2023-07-20T07:02:19;28.60;53.40
75738;DHT22;64356;45.638;13.764;2023-07-20T07:04:44;28.60;53.40
75738;DHT22;64356;45.638;13.764;2023-07-20T07:07:15;28.60;52.70
75738;DHT22;64356;45.638;13.764;2023-07-20T07:09:41;28.70;53.30
75738;DHT22;64356;45.638;13.764;2023-07-20T07:12:07;28.70;53.70
75738;DHT22;64356;45.638;13.764;2023-07-20T07:14:33;28.80;54.50
75738;DHT22;64356;45.638;13.764;2023-07-20T07:17:00;28.80;53.80
75738;DHT22;64356;45.638;13.764;2023-07-20T07:19:25;28.80;53.80
75738;DHT22;64356;45.638;13.764;2023-07-20T07:21:51;28.80;52.40
75738;DHT22;64356;45.638;13.764;2023-07-20T07:24:17;28.80;52.20
75738;DHT22;64356;45.638;13.764;2023-07-20T07:26:43;28.80;51.50
75738;DHT22;64356;45.638;13.764;2023-07-20T07:29:09;28.80;51.30
75738;DHT22;64356;45.638;13.764;2023-07-20T07:31:35;28.90;51.40
75738;DHT22;64356;45.638;13.764;2023-07-20T07:34:02;28.90;52.00
75738;DHT22;64356;45.638;13.764;2023-07-20T07:36:28;28.90;53.10
75738;DHT22;64356;45.638;13.764;2023-07-20T07:38:54;29.00;52.60
75738;DHT22;64356;45.638;13.764;2023-07-20T07:41:19;29.00;52.90
75738;DHT22;64356;45.638;13.764;2023-07-20T07:43:46;29.00;52.90
75738;DHT22;64356;45.638;13.764;2023-07-20T07:46:11;29.10;53.00
75738;DHT22;64356;45.638;13.764;2023-07-20T07:48:37;29.10;51.80
75738;DHT22;64356;45.638;13.764;2023-07-20T07:51:03;29.10;52.50
75738;DHT22;64356;45.638;13.764;2023-07-20T07:53:29;29.10;51.80
75738;DHT22;64356;45.638;13.764;2023-07-20T07:55:55;29.10;51.60
75738;DHT22;64356;45.638;13.764;2023-07-20T07:58:21;29.20;51.30
75738;DHT22;64356;45.638;13.764;2023-07-20T08:00:46;29.20;51.00
75738;DHT22;64356;45.638;13.764;2023-07-20T08:03:13;29.30;51.40
75738;DHT22;64356;45.638;13.764;2023-07-20T08:05:39;29.30;51.40
75738;DHT22;64356;45.638;13.764;2023-07-20T08:08:05;29.30;50.80
75738;DHT22;64356;45.638;13.764;2023-07-20T08:10:31;29.30;50.20
75738;DHT22;64356;45.638;13.764;2023-07-20T08:12:57;29.40;50.30
75738;DHT22;64356;45.638;13.764;2023-07-20T08:15:22;29.40;50.70
75738;DHT22;64356;45.638;13.764;2023-07-20T08:17:48;29.40;51.10
75738;DHT22;64356;45.638;13.764;2023-07-20T08:20:17;29.40;52.40
75738;DHT22;64356;45.638;13.764;2023-07-20T08:22:43;29.40;53.40
75738;DHT22;64356;45.638;13.764;2023-07-20T08:25:09;29.30;53.40
75738;DHT22;64356;45.638;13.764;2023-07-20T08:27:35;29.30;51.90
75738;DHT22;64356;45.638;13.764;2023-07-20T08:30:02;29.30;50.10
75738;DHT22;64356;45.638;13.764;2023-07-20T08:32:28;29.40;49.20
75738;DHT22;64356;45.638;13.764;2023-07-20T08:34:53;29.40;49.10
75738;DHT22;64356;45.638;13.764;2023-07-20T08:37:19;29.50;51.00
75738;DHT22;64356;45.638;13.764;2023-07-20T08:39:45;29.40;51.60
75738;DHT22;64356;45.638;13.764;2023-07-20T08:42:12;29.50;51.00
75738;DHT22;64356;45.638;13.764;2023-07-20T08:44:41;29.60;49.80
75738;DHT22;64356;45.638;13.764;2023-07-20T08:47:09;29.60;49.10
75738;DHT22;64356;45.638;13.764;2023-07-20T08:49:36;29.70;48.70
75738;DHT22;64356;45.638;13.764;2023-07-20T08:52:03;29.70;48.60
75738;DHT22;64356;45.638;13.764;2023-07-20T08:54:32;29.80;48.60
75738;DHT22;64356;45.638;13.764;2023-07-20T08:57:04;29.90;48.50
75738;DHT22;64356;45.638;13.764;2023-07-20T08:59:31;29.90;48.40
75738;DHT22;64356;45.638;13.764;2023-07-20T09:01:58;29.90;48.50
75738;DHT22;64356;45.638;13.764;2023-07-20T09:04:25;29.90;48.70
75738;DHT22;64356;45.638;13.764;2023-07-20T09:06:50;30.00;48.90
75738;DHT22;64356;45.638;13.764;2023-07-20T09:09:24;30.00;48.80
75738;DHT22;64356;45.638;13.764;2023-07-20T09:11:49;30.00;48.90
75738;DHT22;64356;45.638;13.764;2023-07-20T09:14:15;30.00;48.90
75738;DHT22;64356;45.638;13.764;2023-07-20T09:19:17;30.00;48.90
75738;DHT22;64356;45.638;13.764;2023-07-20T09:21:51;30.10;49.10
75738;DHT22;64356;45.638;13.764;2023-07-20T09:24:20;30.10;49.20
75738;DHT22;64356;45.638;13.764;2023-07-20T09:26:47;30.10;49.00
75738;DHT22;64356;45.638;13.764;2023-07-20T09:29:14;30.20;49.10
75738;DHT22;64356;45.638;13.764;2023-07-20T09:32:04;30.20;49.10
75738;DHT22;64356;45.638;13.764;2023-07-20T09:34:30;30.20;49.10
75738;DHT22;64356;45.638;13.764;2023-07-20T09:36:59;30.20;50.10
75738;DHT22;64356;45.638;13.764;2023-07-20T09:39:26;30.30;49.80
75738;DHT22;64356;45.638;13.764;2023-07-20T09:41:52;30.30;49.70
75738;DHT22;64356;45.638;13.764;2023-07-20T09:44:19;30.30;49.80
75738;DHT22;64356;45.638;13.764;2023-07-20T09:46:49;30.40;49.80
75738;DHT22;64356;45.638;13.764;2023-07-20T09:49:15;30.40;49.40
75738;DHT22;64356;45.638;13.764;2023-07-20T09:51:44;30.40;49.30
75738;DHT22;64356;45.638;13.764;2023-07-20T09:54:10;30.40;49.50
75738;DHT22;64356;45.638;13.764;2023-07-20T09:56:38;30.50;49.70
75738;DHT22;64356;45.638;13.764;2023-07-20T09:59:05;30.40;49.70
75738;DHT22;64356;45.638;13.764;2023-07-20T10:01:32;30.40;49.20
75738;DHT22;64356;45.638;13.764;2023-07-20T10:04:03;30.50;47.80
75738;DHT22;64356;45.638;13.764;2023-07-20T10:06:32;30.50;47.20
75738;DHT22;64356;45.638;13.764;2023-07-20T10:09:02;30.60;47.20
75738;DHT22;64356;45.638;13.764;2023-07-20T10:11:34;30.60;47.20
75738;DHT22;64356;45.638;13.764;2023-07-20T10:14:03;30.60;46.70
75738;DHT22;64356;45.638;13.764;2023-07-20T10:16:34;30.60;46.60
75738;DHT22;64356;45.638;13.764;2023-07-20T10:19:22;30.60;47.20
75738;DHT22;64356;45.638;13.764;2023-07-20T10:22:00;30.60;47.30
75738;DHT22;64356;45.638;13.764;2023-07-20T10:24:28;30.60;46.90
75738;DHT22;64356;45.638;13.764;2023-07-20T10:26:55;30.70;46.00
75738;DHT22;64356;45.638;13.764;2023-07-20T10:29:21;30.80;46.40
75738;DHT22;64356;45.638;13.764;2023-07-20T10:31:48;30.80;46.30
75738;DHT22;64356;45.638;13.764;2023-07-20T10:34:15;30.90;46.50
75738;DHT22;64356;45.638;13.764;2023-07-20T10:36:44;31.00;46.40
75738;DHT22;64356;45.638;13.764;2023-07-20T10:39:33;31.10;46.30
75738;DHT22;64356;45.638;13.764;2023-07-20T10:42:11;31.20;47.70
75738;DHT22;64356;45.638;13.764;2023-07-20T10:44:37;31.20;50.80
75738;DHT22;64356;45.638;13.764;2023-07-20T10:47:09;31.20;55.20
75738;DHT22;64356;45.638;13.764;2023-07-20T10:49:58;31.20;58.50
75738;DHT22;64356;45.638;13.764;2023-07-20T10:52:25;31.10;60.20
75738;DHT22;64356;45.638;13.764;2023-07-20T10:54:51;31.10;61.00
75738;DHT22;64356;45.638;13.764;2023-07-20T10:57:30;31.00;59.80
75738;DHT22;64356;45.638;13.764;2023-07-20T11:00:13;31.00;59.60
75738;DHT22;64356;45.638;13.764;2023-07-20T11:02:49;31.00;59.30
75738;DHT22;64356;45.638;13.764;2023-07-20T11:05:47;31.00;58.30
75738;DHT22;64356;45.638;13.764;2023-07-20T11:08:14;31.00;55.80
75738;DHT22;64356;45.638;13.764;2023-07-20T11:11:27;30.90;57.30
75738;DHT22;64356;45.638;13.764;2023-07-20T11:16:35;30.70;61.60
75738;DHT22;64356;45.638;13.764;2023-07-20T11:19:01;30.70;62.50
75738;DHT22;64356;45.638;13.764;2023-07-20T11:21:28;30.60;61.90
75738;DHT22;64356;45.638;13.764;2023-07-20T11:23:53;30.70;61.60
75738;DHT22;64356;45.638;13.764;2023-07-20T11:26:20;30.70;61.20
75738;DHT22;64356;45.638;13.764;2023-07-20T11:28:50;30.80;61.60
75738;DHT22;64356;45.638;13.764;2023-07-20T11:31:20;30.80;61.90
75738;DHT22;64356;45.638;13.764;2023-07-20T11:33:46;30.90;62.30
75738;DHT22;64356;45.638;13.764;2023-07-20T11:36:13;30.80;61.20
75738;DHT22;64356;45.638;13.764;2023-07-20T11:38:41;30.80;61.70
75738;DHT22;64356;45.638;13.764;2023-07-20T11:41:08;30.80;61.50
75738;DHT22;64356;45.638;13.764;2023-07-20T11:43:34;30.80;61.70
75738;DHT22;64356;45.638;13.764;2023-07-20T11:46:04;30.70;61.90
75738;DHT22;64356;45.638;13.764;2023-07-20T11:48:30;30.60;61.60
75738;DHT22;64356;45.638;13.764;2023-07-20T11:50:56;30.60;62.60
75738;DHT22;64356;45.638;13.764;2023-07-20T11:53:22;30.60;62.50
75738;DHT22;64356;45.638;13.764;2023-07-20T11:55:50;30.60;61.00
75738;DHT22;64356;45.638;13.764;2023-07-20T11:58:15;30.60;60.50
75738;DHT22;64356;45.638;13.764;2023-07-20T12:00:44;30.50;59.90
75738;DHT22;64356;45.638;13.764;2023-07-20T12:03:10;30.60;59.40
75738;DHT22;64356;45.638;13.764;2023-07-20T12:05:40;30.60;59.20
75738;DHT22;64356;45.638;13.764;2023-07-20T12:08:06;30.70;59.10
75738;DHT22;64356;45.638;13.764;2023-07-20T12:10:32;30.70;58.70
75738;DHT22;64356;45.638;13.764;2023-07-20T12:13:02;30.80;59.00
75738;DHT22;64356;45.638;13.764;2023-07-20T12:15:31;30.80;59.50
75738;DHT22;64356;45.638;13.764;2023-07-20T12:17:58;30.80;59.20
75738;DHT22;64356;45.638;13.764;2023-07-20T12:20:36;30.80;59.00
75738;DHT22;64356;45.638;13.764;2023-07-20T12:23:13;30.90;58.90
75738;DHT22;64356;45.638;13.764;2023-07-20T12:25:41;30.80;59.60
75738;DHT22;64356;45.638;13.764;2023-07-20T12:28:12;30.70;59.80
75738;DHT22;64356;45.638;13.764;2023-07-20T12:30:40;30.60;60.10
75738;DHT22;64356;45.638;13.764;2023-07-20T12:33:06;30.60;60.60
75738;DHT22;64356;45.638;13.764;2023-07-20T12:35:32;30.60;61.20
75738;DHT22;64356;45.638;13.764;2023-07-20T12:37:58;30.60;61.20
75738;DHT22;64356;45.638;13.764;2023-07-20T12:40:24;30.60;60.80
75738;DHT22;64356;45.638;13.764;2023-07-20T12:42:50;30.50;61.20
75738;DHT22;64356;45.638;13.764;2023-07-20T12:45:15;30.60;61.10
75738;DHT22;64356;45.638;13.764;2023-07-20T12:47:41;30.50;61.00
75738;DHT22;64356;45.638;13.764;2023-07-20T12:50:10;30.50;60.50
75738;DHT22;64356;45.638;13.764;2023-07-20T12:52:37;30.50;60.40
75738;DHT22;64356;45.638;13.764;2023-07-20T12:55:05;30.60;60.20
75738;DHT22;64356;45.638;13.764;2023-07-20T12:57:31;30.60;60.00
75738;DHT22;64356;45.638;13.764;2023-07-20T12:59:56;30.60;59.80
75738;DHT22;64356;45.638;13.764;2023-07-20T13:02:23;30.60;59.30
75738;DHT22;64356;45.638;13.764;2023-07-20T13:04:48;30.50;59.00
75738;DHT22;64356;45.638;13.764;2023-07-20T13:07:14;30.50;58.70
75738;DHT22;64356;45.638;13.764;2023-07-20T13:09:40;30.40;58.00
75738;DHT22;64356;45.638;13.764;2023-07-20T13:12:06;30.40;57.60
75738;DHT22;64356;45.638;13.764;2023-07-20T13:14:31;30.50;57.40
75738;DHT22;64356;45.638;13.764;2023-07-20T13:16:57;30.50;57.40
75738;DHT22;64356;45.638;13.764;2023-07-20T13:19:23;30.40;58.00
75738;DHT22;64356;45.638;13.764;2023-07-20T13:21:49;30.40;57.70
75738;DHT22;64356;45.638;13.764;2023-07-20T13:24:15;30.50;57.60
75738;DHT22;64356;45.638;13.764;2023-07-20T13:26:40;30.50;57.70
75738;DHT22;64356;45.638;13.764;2023-07-20T13:29:06;30.50;58.40
75738;DHT22;64356;45.638;13.764;2023-07-20T13:31:32;30.50;59.60
75738;DHT22;64356;45.638;13.764;2023-07-20T13:33:57;30.50;58.80
75738;DHT22;64356;45.638;13.764;2023-07-20T13:36:24;30.50;58.70
75738;DHT22;64356;45.638;13.764;2023-07-20T13:38:49;30.60;58.50
75738;DHT22;64356;45.638;13.764;2023-07-20T13:41:15;30.60;58.00
75738;DHT22;64356;45.638;13.764;2023-07-20T13:43:42;30.60;57.50
75738;DHT22;64356;45.638;13.764;2023-07-20T13:46:07;30.60;57.50
75738;DHT22;64356;45.638;13.764;2023-07-20T13:48:33;30.70;56.70
75738;DHT22;64356;45.638;13.764;2023-07-20T13:50:59;30.60;57.00
75738;DHT22;64356;45.638;13.764;2023-07-20T13:53:24;30.50;57.10
75738;DHT22;64356;45.638;13.764;2023-07-20T13:55:50;30.50;57.50
75738;DHT22;64356;45.638;13.764;2023-07-20T13:58:17;30.50;57.60
75738;DHT22;64356;45.638;13.764;2023-07-20T14:00:43;30.50;57.60
75738;DHT22;64356;45.638;13.764;2023-07-20T14:03:09;30.50;57.70
75738;DHT22;64356;45.638;13.764;2023-07-20T14:05:34;30.60;58.10
75738;DHT22;64356;45.638;13.764;2023-07-20T14:08:00;30.60;58.70
75738;DHT22;64356;45.638;13.764;2023-07-20T14:10:26;30.60;57.80
75738;DHT22;64356;45.638;13.764;2023-07-20T14:12:52;30.50;58.00
75738;DHT22;64356;45.638;13.764;2023-07-20T14:15:17;30.50;58.00
75738;DHT22;64356;45.638;13.764;2023-07-20T14:17:44;30.50;58.10
75738;DHT22;64356;45.638;13.764;2023-07-20T14:20:10;30.50;57.90
75738;DHT22;64356;45.638;13.764;2023-07-20T14:22:36;30.40;57.70
75738;DHT22;64356;45.638;13.764;2023-07-20T14:25:02;30.50;58.20
75738;DHT22;64356;45.638;13.764;2023-07-20T14:27:28;30.40;58.20
75738;DHT22;64356;45.638;13.764;2023-07-20T14:29:54;30.40;59.00
75738;DHT22;64356;45.638;13.764;2023-07-20T14:32:20;30.40;58.50
75738;DHT22;64356;45.638;13.764;2023-07-20T14:34:46;30.40;58.60
75738;DHT22;64356;45.638;13.764;2023-07-20T14:37:12;30.30;59.00
75738;DHT22;64356;45.638;13.764;2023-07-20T14:39:38;30.40;59.60
75738;DHT22;64356;45.638;13.764;2023-07-20T14:42:04;30.40;60.00
75738;DHT22;64356;45.638;13.764;2023-07-20T14:44:30;30.50;59.40
75738;DHT22;64356;45.638;13.764;2023-07-20T14:46:56;30.50;59.20
75738;DHT22;64356;45.638;13.764;2023-07-20T14:49:21;30.50;59.70
75738;DHT22;64356;45.638;13.764;2023-07-20T14:51:47;30.50;59.30
75738;DHT22;64356;45.638;13.764;2023-07-20T14:54:13;30.50;59.10
75738;DHT22;64356;45.638;13.764;2023-07-20T14:56:39;30.50;58.90
75738;DHT22;64356;45.638;13.764;2023-07-20T14:59:13;30.50;59.20
75738;DHT22;64356;45.638;13.764;2023-07-20T15:01:39;30.50;59.10
75738;DHT22;64356;45.638;13.764;2023-07-20T15:04:05;30.60;59.20
75738;DHT22;64356;45.638;13.764;2023-07-20T15:06:30;30.60;59.10
75738;DHT22;64356;45.638;13.764;2023-07-20T15:08:57;30.60;59.70
75738;DHT22;64356;45.638;13.764;2023-07-20T15:11:23;30.60;59.20
75738;DHT22;64356;45.638;13.764;2023-07-20T15:13:49;30.60;59.20
75738;DHT22;64356;45.638;13.764;2023-07-20T15:16:14;30.50;59.10
75738;DHT22;64356;45.638;13.764;2023-07-20T15:18:40;30.50;59.10
75738;DHT22;64356;45.638;13.764;2023-07-20T15:21:06;30.50;59.00
75738;DHT22;64356;45.638;13.764;2023-07-20T15:23:31;30.50;59.10
75738;DHT22;64356;45.638;13.764;2023-07-20T15:25:57;30.50;59.10
75738;DHT22;64356;45.638;13.764;2023-07-20T15:28:23;30.50;59.10